.
WxDataArchive / Data Records for 2012-09-24
2012-09-23 September 2012 2012-09-25

Data Records for Monday, 24 September 2012

Time	Temp	Chill	HIndex	Humid	Dewpt	 Wind 	HiWind	WindDir	Rain 	Barom 
-----	----	-----	------	-----	-----	------	------	-------	-----	----- 
00:00	39.2	39.2	39.2	86	35.4	0	0	---	0.00	30.249 
00:05	39.2	39.2	39.2	86	35.4	0	0	---	0.00	30.249 
00:10	38.9	38.9	38.9	87	35.4	0	0	---	0.00	30.249 
00:15	38.9	38.9	38.9	87	35.4	0	0	---	0.00	30.245 
00:20	38.8	38.8	38.8	87	35.3	0	0	---	0.00	30.245 
00:25	38.6	38.6	38.6	88	35.4	0	0	---	0.00	30.245 
00:30	38.5	38.5	38.5	88	35.3	0	0	---	0.00	30.244 
00:35	38.5	38.5	38.5	88	35.3	0	0	---	0.00	30.244 
00:40	38.3	38.3	38.3	88	35.1	0	0	---	0.00	30.244 
00:45	38.2	38.2	38.2	88	35.0	0	0	---	0.00	30.242 
00:50	38.0	38.0	38.0	88	34.8	0	0	---	0.00	30.242 
00:55	38.0	38.0	38.0	89	35.1	0	0	---	0.00	30.242 
01:00	37.9	37.9	37.9	89	35.0	0	0	---	0.00	30.240 
01:05	37.9	37.9	37.9	89	35.0	0	0	---	0.00	30.240 
01:10	37.8	37.8	37.8	89	34.9	0	0	---	0.00	30.240 
01:15	37.8	37.8	37.8	89	34.9	0	0	---	0.00	30.234 
01:20	37.6	37.6	37.6	90	34.9	0	0	---	0.00	30.234 
01:25	37.6	37.6	37.6	90	34.9	0	0	---	0.00	30.234 
01:30	37.5	37.5	37.5	90	34.8	0	0	---	0.00	30.232 
01:35	37.3	37.3	37.3	90	34.6	0	0	---	0.00	30.232 
01:40	37.3	37.3	37.3	90	34.6	0	0	---	0.00	30.232 
01:45	37.2	37.2	37.2	90	34.5	0	0	---	0.00	30.235 
01:50	37.0	37.0	37.0	90	34.3	0	0	---	0.00	30.235 
01:55	36.9	36.9	36.9	90	34.2	0	0	---	0.00	30.235 
02:00	36.8	36.8	36.8	90	34.1	0	0	---	0.00	30.235 
02:05	36.6	36.6	36.6	90	33.9	0	0	---	0.00	30.235 
02:10	36.6	36.6	36.6	90	33.9	0	0	---	0.00	30.235 
02:15	36.5	36.5	36.5	91	34.1	0	0	---	0.00	30.236 
02:20	36.3	36.3	36.3	91	33.9	0	0	---	0.00	30.236 
02:25	36.3	36.3	36.3	91	33.9	0	0	---	0.00	30.236 
02:30	36.2	36.2	36.2	91	33.8	0	0	---	0.00	30.236 
02:35	36.0	36.0	36.0	91	33.6	0	0	---	0.00	30.236 
02:40	36.0	36.0	36.0	91	33.6	0	0	---	0.00	30.236 
02:45	35.9	35.9	35.9	91	33.5	0	0	---	0.00	30.234 
02:50	35.9	35.9	35.9	91	33.5	0	0	---	0.00	30.234 
02:55	35.8	35.8	35.8	91	33.4	0	0	---	0.00	30.234 
03:00	35.8	35.8	35.8	91	33.4	0	0	---	0.00	30.232 
03:05	35.6	35.6	35.6	91	33.2	0	0	---	0.00	30.232 
03:10	35.6	35.6	35.6	91	33.2	0	0	---	0.00	30.232 
03:15	35.5	35.5	35.5	91	33.1	0	0	---	0.00	30.231 
03:20	35.3	35.3	35.3	92	33.2	0	0	---	0.00	30.231 
03:25	35.3	35.3	35.3	92	33.2	0	0	---	0.00	30.231 
03:30	35.2	35.2	35.2	92	33.1	0	0	---	0.00	30.230 
03:35	35.2	35.2	35.2	92	33.1	0	0	---	0.00	30.230 
03:40	35.2	35.2	35.2	92	33.1	0	0	---	0.00	30.230 
03:45	35.2	35.2	35.2	92	33.1	0	0	---	0.00	30.232 
03:50	35.2	35.2	35.2	92	33.1	0	0	---	0.00	30.232 
03:55	35.2	35.2	35.2	92	33.1	0	0	---	0.00	30.232 
04:00	35.3	35.3	35.3	92	33.2	0	0	---	0.00	30.234 
04:05	35.3	35.3	35.3	92	33.2	0	0	---	0.00	30.234 
04:10	35.5	35.5	35.5	92	33.4	0	0	---	0.00	30.234 
04:15	35.5	35.5	35.5	92	33.4	0	0	---	0.00	30.236 
04:20	35.5	35.5	35.5	92	33.4	0	0	---	0.00	30.236 
04:25	35.5	35.5	35.5	92	33.4	0	0	---	0.00	30.236 
04:30	35.3	35.3	35.3	92	33.2	0	0	---	0.00	30.235 
04:35	35.5	35.5	35.5	92	33.4	0	0	---	0.00	30.235 
04:40	35.6	35.6	35.6	93	33.8	0	0	---	0.00	30.235 
04:45	35.6	35.6	35.6	92	33.5	0	0	---	0.00	30.234 
04:50	35.6	35.6	35.6	93	33.8	0	0	---	0.00	30.234 
04:55	35.6	35.6	35.6	93	33.8	0	0	---	0.00	30.234 
05:00	35.6	35.6	35.6	93	33.8	0	0	---	0.00	30.234 
05:05	35.6	35.6	35.6	93	33.8	0	0	---	0.00	30.234 
05:10	35.5	35.5	35.5	93	33.7	0	0	---	0.00	30.234 
05:15	35.5	35.5	35.5	93	33.7	0	0	---	0.00	30.234 
05:20	35.5	35.5	35.5	93	33.7	0	0	---	0.00	30.234 
05:25	35.3	35.3	35.3	93	33.5	0	0	---	0.00	30.234 
05:30	35.3	35.3	35.3	93	33.5	0	0	---	0.00	30.234 
05:35	35.2	35.2	35.2	93	33.4	0	0	---	0.00	30.234 
05:40	35.2	35.2	35.2	93	33.4	0	0	---	0.00	30.234 
05:45	35.0	35.0	35.0	93	33.2	0	0	---	0.00	30.233 
05:50	35.0	35.0	35.0	93	33.2	0	0	---	0.00	30.233 
05:55	35.0	35.0	35.0	93	33.2	0	0	---	0.00	30.233 
06:00	34.9	34.9	34.9	93	33.1	0	0	---	0.00	30.233 
06:05	34.9	34.9	34.9	93	33.1	0	0	---	0.00	30.233 
06:10	34.7	34.7	34.7	93	32.9	0	0	---	0.00	30.233 
06:15	34.7	34.7	34.7	93	32.9	0	0	---	0.00	30.229 
06:20	34.6	34.6	34.6	93	32.8	0	0	---	0.00	30.229 
06:25	34.6	34.6	34.6	93	32.8	0	0	---	0.00	30.229 
06:30	34.4	34.4	34.4	93	32.6	0	0	---	0.00	30.226 
06:35	34.4	34.4	34.4	93	32.6	0	0	---	0.00	30.226 
06:40	34.4	34.4	34.4	93	32.6	0	0	---	0.00	30.226 
06:45	34.4	34.4	34.4	93	32.6	0	0	---	0.00	30.229 
06:50	34.3	34.3	34.3	93	32.5	0	0	---	0.00	30.229 
06:55	34.3	34.3	34.3	93	32.5	0	0	---	0.00	30.229 
07:00	34.3	34.3	34.3	93	32.5	0	0	---	0.00	30.226 
07:05	34.3	34.3	34.3	93	32.5	0	0	---	0.00	30.226 
07:10	34.4	34.4	34.4	93	32.6	0	0	---	0.00	30.226 
07:15	34.6	34.6	34.6	93	32.8	0	0	---	0.00	30.229 
07:20	34.9	34.9	34.9	94	33.4	0	0	---	0.00	30.229 
07:25	35.3	35.3	35.3	94	33.7	0	0	---	0.00	30.229 
07:30	35.6	35.6	35.6	94	34.0	0	1	270	0.00	30.234 
07:35	36.0	36.0	36.0	94	34.4	0	0	---	0.00	30.234 
07:40	36.5	36.5	36.5	94	34.9	0	0	---	0.00	30.234 
07:45	36.8	36.8	36.8	94	35.2	0	0	---	0.00	30.236 
07:50	37.0	37.0	37.0	94	35.4	0	1	270	0.00	30.236 
07:55	37.3	37.3	37.3	94	35.7	0	0	---	0.00	30.236 
08:00	37.5	37.5	37.5	94	35.9	0	0	---	0.00	30.237 
08:05	37.8	37.8	37.8	94	36.2	0	0	---	0.00	30.237 
08:10	37.9	37.9	37.9	94	36.3	0	0	---	0.00	30.237 
08:15	38.3	38.3	38.3	94	36.7	0	0	---	0.00	30.241 
08:20	38.6	38.6	38.6	94	37.0	0	0	---	0.00	30.241 
08:25	38.9	38.9	38.9	94	37.3	0	0	---	0.00	30.241 
08:30	39.3	39.3	39.3	93	37.4	0	0	---	0.00	30.239 
08:35	39.6	39.6	39.6	93	37.7	0	1	270	0.00	30.239 
08:40	40.2	40.2	40.2	92	38.1	0	1	270	0.00	30.239 
08:45	40.6	40.6	40.6	92	38.5	0	1	270	0.00	30.238 
08:50	41.2	41.2	41.2	91	38.8	0	1	270	0.00	30.238 
08:55	41.6	41.6	41.6	89	38.6	0	1	270	0.00	30.238 
09:00	42.2	42.2	42.2	87	38.6	0	2	270	0.00	30.238 
09:05	42.9	42.9	42.9	85	38.7	0	0	---	0.00	30.238 
09:10	43.5	43.5	43.5	83	38.7	0	1	270	0.00	30.238 
09:15	44.1	44.1	44.1	80	38.3	0	1	270	0.00	30.240 
09:20	44.6	44.6	44.6	78	38.2	0	1	270	0.00	30.240 
09:25	45.1	45.1	45.1	77	38.3	0	1	270	0.00	30.240 
09:30	45.5	45.5	45.5	73	37.4	0	1	292	0.00	30.236 
09:35	46.1	46.1	46.1	71	37.2	0	1	292	0.00	30.236 
09:40	46.7	46.7	46.7	68	36.7	0	2	248	0.00	30.236 
09:45	47.3	47.3	47.3	68	37.3	0	2	248	0.00	30.233 
09:50	47.9	47.9	47.9	65	36.7	0	2	248	0.00	30.233 
09:55	48.5	48.5	48.5	65	37.3	0	1	248	0.00	30.233 
10:00	49.1	49.1	49.1	65	37.8	0	1	248	0.00	30.230 
10:05	49.6	49.6	49.6	61	36.7	1	3	248	0.00	30.230 
10:10	50.2	50.2	50.2	62	37.7	0	2	248	0.00	30.230 
10:15	50.8	50.8	50.8	60	37.4	0	3	112	0.00	30.227 
10:20	51.6	51.6	51.6	60	38.2	0	3	112	0.00	30.227 
10:25	52.6	52.6	52.6	58	38.2	0	3	270	0.00	30.227 
10:30	53.5	53.5	53.5	54	37.3	1	3	248	0.00	30.222 
10:35	54.4	54.4	54.4	54	38.1	0	2	248	0.00	30.222 
10:40	55.1	55.1	55.1	53	38.3	1	4	0	0.00	30.222 
10:45	55.4	55.4	55.4	51	37.6	0	3	270	0.00	30.216 
10:50	55.9	55.9	55.9	50	37.5	1	4	248	0.00	30.216 
10:55	56.2	56.2	56.2	48	36.8	1	4	45	0.00	30.216 
11:00	56.5	56.5	56.5	48	37.0	1	4	270	0.00	30.212 
11:05	56.5	56.5	56.5	48	37.0	1	4	292	0.00	30.212 
11:10	56.6	56.6	56.6	48	37.1	1	3	292	0.00	30.212 
11:15	57.0	57.0	57.0	49	38.0	1	3	248	0.00	30.211 
11:20	57.5	57.5	57.5	48	38.0	1	3	248	0.00	30.211 
11:25	57.5	57.5	57.5	45	36.3	2	3	270	0.00	30.211 
11:30	57.8	57.8	57.8	46	37.2	1	3	248	0.00	30.208 
11:35	58.3	58.3	58.3	46	37.6	1	3	248	0.00	30.208 
11:40	58.9	58.9	58.9	44	37.0	1	3	248	0.00	30.208 
11:45	59.2	59.2	59.2	42	36.1	1	5	248	0.00	30.198 
11:50	59.2	59.2	59.2	45	37.9	1	4	248	0.00	30.198 
11:55	59.2	59.2	59.2	42	36.1	1	6	248	0.00	30.198 
12:00	59.2	59.2	59.2	40	34.9	2	7	270	0.00	30.196 
12:05	59.3	59.3	59.3	39	34.3	1	4	270	0.00	30.196 
12:10	59.6	59.6	59.6	40	35.3	1	6	292	0.00	30.196 
12:15	59.8	59.8	59.8	41	36.1	1	4	270	0.00	30.183 
12:20	59.9	59.9	59.9	36	32.9	2	4	270	0.00	30.183 
12:25	60.2	60.2	60.2	38	34.5	1	3	270	0.00	30.183 
12:30	60.4	60.4	60.4	36	33.3	1	3	270	0.00	30.179 
12:35	60.9	60.9	60.9	42	37.7	0	2	248	0.00	30.179 
12:40	61.2	61.2	61.2	36	34.0	1	4	292	0.00	30.179 
12:45	61.3	61.3	61.3	40	36.8	1	5	270	0.00	30.168 
12:50	61.6	61.6	61.6	35	33.7	1	4	270	0.00	30.168 
12:55	61.5	61.5	61.5	34	32.9	2	5	270	0.00	30.168 
13:00	61.0	61.0	61.0	33	31.7	2	7	292	0.00	30.164 
13:05	61.3	61.3	61.3	39	36.1	1	4	292	0.00	30.164 
13:10	62.1	62.1	62.1	38	36.2	1	3	270	0.00	30.164 
13:15	62.1	62.1	62.1	36	34.8	2	5	270	0.00	30.152 
13:20	62.3	62.3	62.3	34	33.6	1	4	270	0.00	30.152 
13:25	62.4	62.4	62.4	33	32.9	1	5	248	0.00	30.152 
13:30	62.4	62.4	62.4	33	32.9	1	4	270	0.00	30.145 
13:35	62.4	62.4	62.4	32	32.2	2	7	270	0.00	30.145 
13:40	62.4	62.4	62.4	33	32.9	1	4	270	0.00	30.145 
13:45	62.6	62.6	62.6	34	33.8	1	4	90	0.00	30.133 
13:50	62.7	62.7	62.7	32	32.4	2	6	248	0.00	30.133 
13:55	62.9	62.9	62.9	35	34.8	1	4	248	0.00	30.133 
14:00	63.2	63.2	63.2	29	30.4	1	4	248	0.00	30.126 
14:05	63.4	63.4	63.4	30	31.4	1	4	270	0.00	30.126 
14:10	63.4	63.4	63.4	34	34.5	1	3	225	0.00	30.126 
14:15	63.5	63.5	63.5	31	32.3	1	4	292	0.00	30.118 
14:20	63.5	63.5	63.5	31	32.3	2	4	292	0.00	30.118 
14:25	63.2	63.2	63.2	32	32.9	2	6	270	0.00	30.118 
14:30	63.4	63.4	63.4	31	32.2	2	7	270	0.00	30.104 
14:35	63.5	63.5	63.5	32	33.1	2	4	270	0.00	30.104 
14:40	63.5	63.5	63.5	31	32.3	2	5	292	0.00	30.104 
14:45	63.5	63.5	63.5	29	30.7	3	6	270	0.00	30.098 
14:50	63.5	63.5	63.5	30	31.5	2	5	270	0.00	30.098 
14:55	63.7	63.7	63.7	33	34.1	2	4	248	0.00	30.098 
15:00	64.0	64.0	64.0	29	31.1	1	4	248	0.00	30.088 
15:05	64.2	64.2	64.2	28	30.4	2	6	248	0.00	30.088 
15:10	64.2	64.2	64.2	33	34.5	1	4	270	0.00	30.088 
15:15	64.3	64.3	64.3	30	32.2	1	4	270	0.00	30.085 
15:20	64.3	64.3	64.3	29	31.4	1	5	270	0.00	30.085 
15:25	64.7	64.7	64.7	29	31.7	1	5	270	0.00	30.085 
15:30	65.0	65.0	65.0	27	30.2	1	4	225	0.00	30.075 
15:35	65.2	65.2	65.2	28	31.3	1	5	270	0.00	30.075 
15:40	65.2	65.2	65.2	27	30.4	2	5	248	0.00	30.075 
15:45	64.7	64.7	64.7	28	30.8	2	6	270	0.00	30.067 
15:50	64.7	64.7	64.7	28	30.8	2	7	270	0.00	30.067 
15:55	65.0	65.0	65.0	28	31.1	1	4	248	0.00	30.067 
16:00	65.2	65.2	65.2	28	31.3	1	3	248	0.00	30.058 
16:05	65.3	65.3	65.3	27	30.5	1	5	225	0.00	30.058 
16:10	65.2	65.2	65.2	28	31.3	1	4	270	0.00	30.058 
16:15	65.0	65.0	65.0	27	30.2	1	4	248	0.00	30.053 
16:20	64.8	64.8	64.8	27	30.0	1	4	270	0.00	30.053 
16:25	64.8	64.8	64.8	30	32.6	1	4	270	0.00	30.053 
16:30	64.7	64.7	64.7	27	29.9	1	6	270	0.00	30.044 
16:35	64.5	64.5	64.5	28	30.7	1	3	270	0.00	30.044 
16:40	64.5	64.5	64.5	28	30.7	1	7	248	0.00	30.044 
16:45	64.5	64.5	64.5	28	30.7	1	4	292	0.00	30.038 
16:50	64.5	64.5	64.5	28	30.7	1	5	248	0.00	30.038 
16:55	64.5	64.5	64.5	28	30.7	1	4	270	0.00	30.038 
17:00	64.7	64.7	64.7	28	30.8	2	6	248	0.00	30.037 
17:05	64.5	64.5	64.5	27	29.8	2	7	248	0.00	30.037 
17:10	64.7	64.7	64.7	27	29.9	1	4	270	0.00	30.037 
17:15	64.7	64.7	64.7	30	32.5	1	4	270	0.00	30.029 
17:20	64.8	64.8	64.8	27	30.0	1	3	225	0.00	30.029 
17:25	64.8	64.8	64.8	28	30.9	1	4	225	0.00	30.029 
17:30	64.7	64.7	64.7	27	29.9	1	5	270	0.00	30.022 
17:35	64.7	64.7	64.7	27	29.9	1	5	248	0.00	30.022 
17:40	64.7	64.7	64.7	27	29.9	1	4	270	0.00	30.022 
17:45	64.5	64.5	64.5	27	29.8	1	4	248	0.00	30.016 
17:50	64.7	64.7	64.7	28	30.8	1	7	270	0.00	30.016 
17:55	64.7	64.7	64.7	27	29.9	1	4	270	0.00	30.016 
18:00	64.7	64.7	64.7	27	29.9	1	5	270	0.00	30.013 
18:05	64.5	64.5	64.5	27	29.8	0	2	338	0.00	30.013 
18:10	64.3	64.3	64.3	28	30.5	1	3	248	0.00	30.013 
18:15	64.3	64.3	64.3	27	29.6	0	2	248	0.00	30.010 
18:20	64.2	64.2	64.2	27	29.5	0	2	248	0.00	30.010 
18:25	64.0	64.0	64.0	27	29.4	1	2	248	0.00	30.010 
18:30	63.9	63.9	63.9	28	30.2	0	3	248	0.00	30.009 
18:35	63.9	63.9	63.9	28	30.2	1	4	248	0.00	30.009 
18:40	63.7	63.7	63.7	28	30.0	0	1	248	0.00	30.009 
18:45	63.5	63.5	63.5	28	29.8	0	3	248	0.00	30.008 
18:50	63.4	63.4	63.4	29	30.6	0	1	248	0.00	30.008 
18:55	63.2	63.2	63.2	29	30.4	0	3	248	0.00	30.008 
19:00	62.9	62.9	62.9	30	31.0	0	1	248	0.00	30.010 
19:05	62.6	62.6	62.6	30	30.7	0	1	248	0.00	30.010 
19:10	62.3	62.3	62.3	31	31.3	0	1	248	0.00	30.010 
19:15	61.8	61.8	61.8	32	31.6	0	0	---	0.00	30.005 
19:20	61.5	61.5	61.5	32	31.4	0	1	248	0.00	30.005 
19:25	61.0	61.0	61.0	33	31.7	0	0	---	0.00	30.005 
19:30	60.5	60.5	60.5	34	32.0	0	0	---	0.00	30.005 
19:35	60.1	60.1	60.1	34	31.6	0	0	---	0.00	30.005 
19:40	59.6	59.6	59.6	35	31.9	0	0	---	0.00	30.005 
19:45	59.2	59.2	59.2	35	31.6	0	0	---	0.00	30.001 
19:50	58.9	58.9	58.9	36	32.0	0	0	---	0.00	30.001 
19:55	58.4	58.4	58.4	37	32.2	0	0	---	0.00	30.001 
20:00	58.0	58.0	58.0	39	33.2	0	0	---	0.00	30.000 
20:05	57.3	57.3	57.3	40	33.2	0	0	---	0.00	30.000 
20:10	56.7	56.7	56.7	40	32.7	0	0	---	0.00	30.000 
20:15	56.3	56.3	56.3	42	33.5	0	0	---	0.00	29.995 
20:20	55.9	55.9	55.9	44	34.3	0	0	---	0.00	29.995 
20:25	55.3	55.3	55.3	43	33.2	0	0	---	0.00	29.995 
20:30	54.8	54.8	54.8	44	33.3	0	0	---	0.00	29.999 
20:35	54.5	54.5	54.5	45	33.6	0	0	---	0.00	29.999 
20:40	54.2	54.2	54.2	46	33.9	0	0	---	0.00	29.999 
20:45	53.9	53.9	53.9	46	33.6	0	0	---	0.00	30.001 
20:50	53.8	53.8	53.8	46	33.5	0	0	---	0.00	30.001 
20:55	53.5	53.5	53.5	47	33.8	0	0	---	0.00	30.001 
21:00	53.5	53.5	53.5	47	33.8	0	0	---	0.00	30.005 
21:05	53.5	53.5	53.5	48	34.3	0	0	---	0.00	30.005 
21:10	53.6	53.6	53.6	47	33.9	0	1	248	0.00	30.005 
21:15	53.8	53.8	53.8	48	34.6	0	0	---	0.00	30.001 
21:20	54.1	54.1	54.1	48	34.8	0	2	248	0.00	30.001 
21:25	54.2	54.2	54.2	48	34.9	0	1	248	0.00	30.001 
21:30	54.4	54.4	54.4	48	35.1	0	2	248	0.00	30.002 
21:35	54.4	54.4	54.4	48	35.1	0	1	248	0.00	30.002 
21:40	54.5	54.5	54.5	48	35.2	0	1	248	0.00	30.002 
21:45	54.5	54.5	54.5	48	35.2	0	1	248	0.00	30.000 
21:50	54.7	54.7	54.7	48	35.4	0	1	248	0.00	30.000 
21:55	54.7	54.7	54.7	48	35.4	0	1	248	0.00	30.000 
22:00	54.5	54.5	54.5	48	35.2	0	2	248	0.00	30.000 
22:05	54.5	54.5	54.5	48	35.2	0	1	248	0.00	30.000 
22:10	54.5	54.5	54.5	49	35.7	0	0	---	0.00	30.000 
22:15	54.4	54.4	54.4	49	35.6	0	1	248	0.00	29.998 
22:20	54.2	54.2	54.2	50	36.0	0	1	248	0.00	29.998 
22:25	54.1	54.1	54.1	50	35.9	0	0	---	0.00	29.998 
22:30	53.9	53.9	53.9	50	35.7	0	1	248	0.00	29.999 
22:35	53.9	53.9	53.9	50	35.7	0	1	248	0.00	29.999 
22:40	53.8	53.8	53.8	50	35.6	0	1	248	0.00	29.999 
22:45	53.9	53.9	53.9	50	35.7	0	1	248	0.00	29.999 
22:50	54.1	54.1	54.1	50	35.9	0	1	248	0.00	29.999 
22:55	54.1	54.1	54.1	50	35.9	0	1	248	0.00	29.999 
23:00	54.2	54.2	54.2	50	36.0	0	1	248	0.00	29.998 
23:05	54.4	54.4	54.4	50	36.2	0	1	248	0.00	29.998 
23:10	54.5	54.5	54.5	50	36.2	0	1	248	0.00	29.998 
23:15	54.8	54.8	54.8	49	36.0	0	2	225	0.00	29.993 
23:20	55.1	55.1	55.1	48	35.8	1	5	225	0.00	29.993 
23:25	55.4	55.4	55.4	48	36.0	0	4	248	0.00	29.993 
23:30	55.4	55.4	55.4	48	36.0	0	2	248	0.00	29.991 
23:35	55.6	55.6	55.6	48	36.2	0	2	248	0.00	29.991 
23:40	55.6	55.6	55.6	48	36.2	0	1	248	0.00	29.991 
23:45	55.6	55.6	55.6	48	36.2	0	3	248	0.00	29.989 
23:50	55.6	55.6	55.6	48	36.2	0	2	248	0.00	29.989 
23:55	55.6	55.6	55.6	48	36.2	0	1	248	0.00	29.989 

CoCoRaHS
IN-AL-39
A2 Web Hosting
Creative Commons License
GoDaddy
search engine by freefind advanced

loaded 2018-11-20 06:21:04 • last modified 2010-11-18 10:43:29
Privacy PolicyDisclaimer
• wx.awcolley.com is powered by PmWiki v.2002016 •
• all content (unless otherwise noted) © 2018 A W Colley